CST,Max TemperatureF,Mean TemperatureF,Min TemperatureF,Max Dew PointF,MeanDew PointF,Min DewpointF,Max Humidity, Mean Humidity, Min Humidity, Max Sea Level PressureIn, Mean Sea Level PressureIn, Min Sea Level PressureIn, Max VisibilityMiles, Mean VisibilityMiles, Min VisibilityMiles, Max Wind SpeedMPH, Mean Wind SpeedMPH, Max Gust SpeedMPH,PrecipitationIn, CloudCover, Events, WindDirDegrees
2013-1-1,42,38,34,38,35,29,100,87,71,30.26,30.15,30.06,9,5,0,13,4,,0.00,8,Fog,284
2013-1-2,38,32,25,29,24,14,82,60,37,30.33,30.29,30.24,10,9,7,12,5,15,0.00,5,,272
2013-1-3,46,34,21,29,26,20,88,70,37,30.48,30.42,30.32,10,9,5,13,4,,0.00,0,,249
2013-1-4,48,36,23,28,24,19,86,64,23,30.54,30.45,30.39,10,10,7,8,4,,0.00,2,,257
2013-1-5,51,41,30,34,31,26,82,67,52,30.38,30.30,30.22,10,10,10,14,4,20,0.00,6,,252
2013-1-6,54,41,27,30,26,20,92,60,28,30.39,30.35,30.29,10,9,6,15,5,20,0.00,0,,277
2013-1-7,54,40,26,28,25,21,85,57,28,30.40,30.29,30.16,10,10,10,13,5,14,0.00,0,,74
2013-1-8,57,45,32,45,36,26,93,68,43,30.21,30.15,30.08,10,8,3,15,7,22,0.48,7,Rain,68
2013-1-9,57,52,47,52,48,44,93,83,72,30.30,30.24,30.16,10,8,4,23,9,32,0.08,7,Rain,75
2013-1-10,61,54,46,57,51,44,96,84,72,30.16,29.95,29.84,10,9,2,23,9,32,0.06,7,Rain,103
2013-1-11,73,56,39,47,43,37,93,64,34,29.94,29.86,29.77,10,9,2,18,5,24,0.00,0,,83
2013-1-12,57,48,38,53,44,32,93,85,77,29.95,29.83,29.72,10,8,2,18,7,24,0.61,7,Rain,343
2013-1-13,38,32,26,32,22,18,82,67,52,30.37,30.19,29.96,10,10,10,17,11,22,T,5,,323
2013-1-14,40,31,22,23,17,13,74,57,40,30.47,30.37,30.32,10,10,10,10,5,15,0.00,2,,50
2013-1-15,35,29,23,27,22,17,85,72,58,30.33,30.26,30.19,10,10,10,13,5,16,0.00,6,,348
2013-1-16,46,35,23,25,20,15,81,56,31,30.26,30.20,30.14,10,10,10,14,6,17,0.00,1,,259
2013-1-17,56,42,28,31,27,21,75,55,35,30.51,30.39,30.23,10,10,2,16,6,20,0.00,0,,314
2013-1-18,60,43,25,32,27,23,85,56,27,30.54,30.42,30.27,10,10,10,10,3,14,0.00,0,,69
2013-1-19,67,49,30,36,32,25,78,54,29,30.27,30.21,30.12,10,10,10,15,4,23,0.00,0,,210
2013-1-20,65,48,31,38,34,29,89,60,31,30.27,30.20,30.12,10,10,9,13,4,17,0.00,0,,62
2013-1-21,53,43,33,32,18,14,60,41,22,30.38,30.30,30.19,10,10,10,17,7,22,0.00,1,,26
2013-1-22,49,39,29,23,21,18,69,53,36,30.40,30.32,30.26,10,10,10,15,8,17,0.00,1,,73
2013-1-23,61,46,31,39,31,22,76,58,40,30.32,30.24,30.16,10,10,9,13,6,15,0.00,1,,64
2013-1-24,50,43,35,40,29,22,83,62,40,30.31,30.23,30.17,10,10,9,22,12,28,0.00,7,,78
2013-1-25,46,39,32,37,33,26,92,78,64,30.26,30.20,30.14,10,4,2,15,4,20,0.02,6,,182
2013-1-26,53,43,32,37,32,26,100,68,35,30.29,30.24,30.19,10,5,0,16,7,20,0.00,6,Fog,78
2013-1-27,58,53,47,54,46,36,93,77,61,30.17,30.06,29.98,10,9,6,14,8,16,0.01,8,Rain,67
2013-1-28,77,66,55,61,57,53,93,75,56,30.02,29.95,29.85,10,9,6,24,9,30,0.00,8,,126
2013-1-29,73,63,52,66,60,50,100,82,64,29.83,29.60,29.45,10,6,1,35,10,41,2.71,8,Rain-Thunderstorm,194
2013-1-30,52,42,31,48,33,24,100,75,49,30.10,29.80,29.54,10,10,4,28,13,35,T,6,Rain,286
2013-1-31,61,44,26,29,23,11,85,55,25,30.44,30.19,30.07,10,10,6,29,6,33,0.00,0,,322